createdAt,value
2017-07-10T00:01:22.450Z,81.20
2017-07-10T00:03:50.782Z,80.70
2017-07-10T00:06:19.129Z,81.50
2017-07-10T00:08:47.473Z,81.50
2017-07-10T00:11:15.810Z,81.30
2017-07-10T00:14:00.514Z,82.00
2017-07-10T00:16:28.838Z,81.00
2017-07-10T00:18:57.193Z,81.40
2017-07-10T00:21:25.521Z,81.80
2017-07-10T00:23:53.871Z,81.50
2017-07-10T00:26:22.256Z,81.20
2017-07-10T00:28:50.672Z,81.40
2017-07-10T00:31:18.995Z,81.00
2017-07-10T00:33:47.336Z,80.50
2017-07-10T00:36:15.699Z,80.20
2017-07-10T00:38:44.043Z,80.70
2017-07-10T06:05:38.865Z,82.80
2017-07-10T06:08:07.200Z,85.00
2017-07-10T06:10:35.602Z,84.40
2017-07-10T06:13:20.398Z,84.60
2017-07-10T06:15:48.730Z,84.50
2017-07-10T06:18:17.198Z,83.70
2017-07-10T06:20:45.536Z,85.40
2017-07-10T06:23:13.954Z,86.00
2017-07-10T06:25:42.313Z,86.30
2017-07-10T06:28:10.655Z,85.40
2017-07-10T06:30:39.098Z,84.80
2017-07-10T06:33:07.544Z,84.10
2017-07-10T06:35:35.891Z,84.20
2017-07-10T06:38:04.261Z,84.00
2017-07-10T06:40:32.609Z,82.30
2017-07-10T06:43:00.976Z,81.40
2017-07-10T06:45:29.308Z,81.30
2017-07-10T06:47:57.659Z,80.10
2017-07-10T06:50:25.996Z,80.70
2017-07-10T06:52:54.334Z,80.70
2017-07-10T06:55:22.662Z,81.00
2017-07-10T06:57:51.016Z,81.80
2017-07-10T07:00:19.350Z,81.60
2017-07-10T07:02:47.702Z,81.50
2017-07-10T07:05:16.034Z,80.80
2017-07-10T07:07:44.379Z,80.70
2017-07-10T07:10:12.729Z,80.10
2017-07-10T07:12:41.056Z,80.60
2017-07-10T07:15:09.402Z,80.20
2017-07-10T07:17:37.730Z,80.80
2017-07-10T07:20:06.088Z,79.50
2017-07-10T07:22:34.407Z,79.90
2017-07-10T07:25:02.776Z,81.20
2017-07-10T07:27:31.097Z,80.10
2017-07-10T07:29:59.453Z,79.50
2017-07-10T07:32:27.780Z,79.20
2017-07-10T07:34:56.139Z,80.70
2017-07-10T07:37:24.458Z,80.40
2017-07-10T07:39:52.783Z,79.90
2017-07-10T07:42:21.135Z,79.30
2017-07-10T07:44:49.464Z,78.80
2017-07-10T07:47:17.804Z,79.50
2017-07-10T07:49:46.122Z,79.40
2017-07-10T07:52:14.469Z,78.90
2017-07-10T07:54:42.804Z,78.80
2017-07-10T07:57:11.162Z,78.40
2017-07-10T07:59:39.478Z,80.20
2017-07-10T08:02:07.835Z,79.10
2017-07-10T08:04:36.157Z,78.00
2017-07-10T08:07:04.468Z,79.00
2017-07-10T08:09:32.808Z,79.30
2017-07-10T08:12:01.137Z,78.50
2017-07-10T08:14:29.489Z,77.40
2017-07-10T08:16:57.814Z,78.00
2017-07-10T08:19:26.159Z,78.30
2017-07-10T08:21:54.482Z,77.20
2017-07-10T08:24:22.851Z,78.60
2017-07-10T08:26:51.178Z,78.40
2017-07-10T08:29:19.497Z,78.20
2017-07-10T08:31:47.912Z,78.80
2017-07-10T08:34:16.227Z,78.00
2017-07-10T08:36:44.583Z,77.60
2017-07-10T08:39:12.913Z,77.90
2017-07-10T08:41:41.255Z,77.30
2017-07-10T08:44:09.581Z,76.70
2017-07-10T08:46:37.961Z,75.10
2017-07-10T08:49:06.283Z,75.20
2017-07-10T08:51:34.651Z,75.40
2017-07-10T08:54:02.963Z,75.70
2017-07-10T08:56:31.280Z,77.20
2017-07-10T08:58:59.628Z,76.50
2017-07-10T09:01:27.982Z,75.90
2017-07-10T09:03:56.338Z,75.50
2017-07-10T09:06:24.664Z,75.60
2017-07-10T09:08:53.004Z,77.20
2017-07-10T09:11:21.343Z,76.30
2017-07-10T09:13:49.690Z,76.40
2017-07-10T09:16:18.145Z,77.90
2017-07-10T09:18:46.499Z,79.10
2017-07-10T09:21:14.824Z,75.40
2017-07-10T09:23:43.145Z,76.40
2017-07-10T09:26:11.475Z,74.80
2017-07-10T09:28:39.799Z,74.90
2017-07-10T09:31:08.144Z,73.00
2017-07-10T09:33:36.463Z,73.30
2017-07-10T09:36:04.810Z,73.40
2017-07-10T09:38:33.133Z,72.90
2017-07-10T09:41:01.472Z,74.00
2017-07-10T09:43:29.784Z,73.90
2017-07-10T09:45:58.127Z,75.60
2017-07-10T09:48:26.442Z,75.10
2017-07-10T09:50:54.800Z,76.10
2017-07-10T09:53:23.125Z,77.40
2017-07-10T09:55:51.445Z,76.70
2017-07-10T09:58:20.702Z,76.40
2017-07-10T10:00:49.019Z,76.50
2017-07-10T10:03:17.358Z,78.00
2017-07-10T10:05:45.669Z,77.90
2017-07-10T10:08:14.015Z,76.50
2017-07-10T10:10:42.335Z,78.20
2017-07-10T10:13:10.670Z,74.80
2017-07-10T10:15:38.984Z,75.00
2017-07-10T10:18:07.405Z,74.50
2017-07-10T10:20:35.831Z,73.70
2017-07-10T10:23:04.143Z,73.10
2017-07-10T10:25:32.480Z,70.40
2017-07-10T10:28:00.892Z,72.10
2017-07-10T10:30:29.338Z,70.60
2017-07-10T10:32:57.652Z,65.90
2017-07-10T10:35:26.040Z,70.30
2017-07-10T10:37:54.328Z,70.60
2017-07-10T10:40:22.663Z,69.50
2017-07-10T10:42:50.994Z,68.20
2017-07-10T10:45:19.413Z,68.50
2017-07-10T10:47:47.728Z,69.20
2017-07-10T10:50:16.089Z,69.10
2017-07-10T10:52:44.406Z,70.40
2017-07-10T10:58:13.190Z,69.70
2017-07-10T11:00:41.542Z,68.50
2017-07-10T11:03:10.734Z,69.60
2017-07-10T11:05:39.056Z,69.00
2017-07-10T11:08:07.420Z,68.60
2017-07-10T11:10:35.741Z,66.90
2017-07-10T11:13:04.083Z,65.60
2017-07-10T11:15:32.399Z,68.10
2017-07-10T11:18:00.736Z,66.00
2017-07-10T11:20:29.055Z,67.50
2017-07-10T11:22:57.429Z,68.00
2017-07-10T11:25:25.757Z,68.00
2017-07-10T11:27:54.118Z,67.80
2017-07-10T11:30:22.463Z,67.60
2017-07-10T11:32:50.787Z,67.30
2017-07-10T11:35:19.129Z,67.70
2017-07-10T11:37:47.497Z,65.80
2017-07-10T11:40:15.841Z,67.50
2017-07-10T11:42:44.162Z,66.00
2017-07-10T11:45:12.500Z,64.50
2017-07-10T11:47:40.831Z,63.90
2017-07-10T11:50:09.190Z,63.90
2017-07-10T11:52:37.561Z,63.70
2017-07-10T11:55:05.884Z,65.40
2017-07-10T11:57:34.223Z,63.30
2017-07-10T12:00:02.687Z,63.40
2017-07-10T12:02:31.040Z,64.10
2017-07-10T12:04:59.403Z,64.00
2017-07-10T12:07:27.745Z,64.90
2017-07-10T12:09:56.072Z,61.00
2017-07-10T12:12:24.475Z,61.20
2017-07-10T12:14:52.791Z,60.00
2017-07-10T12:17:21.104Z,62.90
2017-07-10T12:19:49.446Z,62.40
2017-07-10T12:22:17.761Z,61.00
2017-07-10T12:24:46.105Z,61.00
2017-07-10T12:27:14.421Z,61.60
2017-07-10T12:29:42.765Z,61.30
2017-07-10T12:32:11.071Z,58.00
2017-07-10T12:34:39.416Z,60.00
2017-07-10T12:37:07.735Z,59.60
2017-07-10T12:39:36.087Z,59.00
2017-07-10T12:42:04.419Z,59.10
2017-07-10T12:44:32.745Z,60.00
2017-07-10T12:47:01.091Z,60.30
2017-07-10T12:49:29.409Z,59.60
2017-07-10T12:51:58.668Z,61.00
2017-07-10T12:54:26.988Z,58.60
2017-07-10T12:56:55.329Z,58.40
2017-07-10T12:59:23.656Z,58.90
2017-07-10T13:01:51.992Z,57.10
2017-07-10T13:04:20.313Z,57.20
2017-07-10T13:06:48.659Z,58.30
2017-07-10T13:09:16.971Z,56.40
2017-07-10T13:11:45.292Z,56.50
2017-07-10T13:14:13.632Z,57.20
2017-07-10T13:16:41.951Z,56.20
2017-07-10T13:19:10.285Z,55.50
2017-07-10T13:21:38.603Z,56.60
2017-07-10T13:24:06.939Z,54.30
2017-07-10T13:26:35.255Z,56.10
2017-07-10T13:29:03.607Z,53.00
2017-07-10T13:31:31.979Z,54.60
2017-07-10T13:34:00.318Z,55.50
2017-07-10T13:36:28.653Z,55.90
2017-07-10T13:38:56.982Z,54.00
2017-07-10T13:41:25.317Z,54.40
2017-07-10T13:43:53.640Z,55.80
2017-07-10T13:46:21.983Z,56.10
2017-07-10T13:48:50.300Z,56.20
2017-07-10T13:51:18.636Z,57.60
2017-07-10T13:53:46.952Z,55.60
2017-07-10T13:56:15.264Z,56.50
2017-07-10T13:58:43.606Z,55.90
2017-07-10T14:01:12.841Z,54.90
2017-07-10T14:03:41.175Z,55.80
2017-07-10T14:06:09.484Z,56.80
2017-07-10T14:08:37.823Z,57.30
2017-07-10T14:11:06.136Z,57.80
2017-07-10T14:13:34.488Z,57.00
2017-07-10T14:16:02.844Z,55.90
2017-07-10T14:18:31.201Z,56.80
2017-07-10T14:20:59.525Z,55.80
2017-07-10T14:23:27.839Z,56.00
2017-07-10T14:25:56.172Z,56.00
2017-07-10T14:28:24.488Z,56.10
2017-07-10T14:30:52.836Z,59.00
2017-07-10T14:33:21.162Z,61.90
2017-07-10T14:35:49.505Z,64.40
2017-07-10T14:38:17.829Z,65.70
2017-07-10T14:40:46.172Z,66.50
2017-07-10T14:43:14.494Z,66.50
2017-07-10T14:45:42.849Z,66.80
2017-07-10T14:48:12.096Z,68.60
2017-07-10T14:50:40.418Z,68.90
2017-07-10T14:53:08.802Z,68.70
2017-07-10T14:55:37.127Z,68.50
2017-07-10T14:58:05.474Z,70.20
2017-07-10T15:00:33.807Z,70.20
2017-07-10T15:03:02.158Z,71.50
2017-07-10T15:05:30.475Z,71.10
2017-07-10T15:07:58.866Z,72.00
2017-07-10T15:10:27.195Z,73.60
2017-07-10T15:12:55.546Z,72.00
2017-07-10T15:15:23.975Z,70.70
2017-07-10T15:17:52.288Z,72.30
2017-07-10T15:20:20.683Z,69.50
2017-07-10T15:22:49.302Z,69.70
2017-07-10T15:25:17.662Z,69.40
2017-07-10T15:27:46.892Z,69.40
2017-07-10T15:30:15.433Z,68.50
2017-07-10T15:32:43.760Z,68.50
2017-07-10T15:35:12.238Z,67.90
2017-07-10T15:37:40.619Z,68.00
2017-07-10T15:40:08.958Z,68.70
2017-07-10T15:42:37.278Z,68.70
2017-07-10T15:45:05.592Z,67.80
2017-07-10T15:47:33.928Z,69.00
2017-07-10T15:50:02.243Z,67.80
2017-07-10T15:52:30.579Z,68.70
2017-07-10T15:54:58.901Z,68.30
2017-07-10T15:57:27.280Z,67.60
2017-07-10T15:59:55.602Z,67.20
2017-07-10T16:02:23.944Z,67.50
2017-07-10T16:04:52.260Z,67.70
2017-07-10T16:07:20.595Z,68.50
2017-07-10T16:09:48.922Z,68.50
2017-07-10T16:12:17.259Z,68.60
2017-07-10T16:14:46.496Z,68.40
2017-07-10T16:17:14.839Z,68.50
2017-07-10T16:19:43.148Z,68.00
2017-07-10T16:22:11.462Z,68.10
2017-07-10T16:24:39.802Z,68.50
2017-07-10T16:27:08.122Z,68.60
2017-07-10T16:29:36.459Z,68.30
2017-07-10T16:32:04.781Z,68.40
2017-07-10T16:34:33.131Z,67.90
2017-07-10T16:37:01.449Z,68.60
2017-07-10T16:39:29.846Z,67.70
2017-07-10T16:41:58.154Z,67.90
2017-07-10T16:44:26.496Z,67.20
2017-07-10T16:46:54.871Z,67.90
2017-07-10T16:49:23.181Z,67.60
2017-07-10T16:51:51.499Z,68.10
2017-07-10T16:54:19.853Z,67.90
2017-07-10T16:56:48.168Z,67.90
2017-07-10T16:59:16.493Z,67.90
2017-07-10T17:01:44.840Z,68.50
2017-07-10T17:04:13.154Z,68.30
2017-07-10T17:06:41.491Z,68.60
2017-07-10T17:09:09.813Z,68.50
2017-07-10T17:11:38.178Z,68.20
2017-07-10T17:14:06.500Z,68.70
2017-07-10T17:16:34.852Z,68.90
2017-07-10T17:19:03.177Z,68.60
2017-07-10T17:21:31.495Z,68.50
2017-07-10T17:23:59.923Z,68.70
2017-07-10T17:26:28.234Z,68.70
2017-07-10T17:28:56.586Z,68.70
2017-07-10T17:31:24.971Z,68.50
2017-07-10T17:33:53.317Z,67.70
2017-07-10T17:36:21.663Z,68.50
2017-07-10T17:38:50.024Z,68.80
2017-07-10T17:41:18.341Z,68.50
2017-07-10T17:43:46.675Z,68.30
2017-07-10T17:46:15.008Z,67.70
2017-07-10T17:48:43.322Z,67.60
2017-07-10T17:51:11.677Z,67.30
2017-07-10T17:53:40.000Z,67.40
2017-07-10T17:56:08.336Z,67.60
2017-07-10T17:58:36.656Z,67.00
2017-07-10T18:01:05.000Z,67.50
2017-07-10T18:03:33.319Z,67.40
2017-07-10T18:06:01.665Z,66.90
2017-07-10T18:08:29.979Z,67.00
2017-07-10T18:10:58.312Z,67.50
2017-07-10T18:13:26.629Z,66.90
2017-07-10T18:15:54.987Z,66.90
2017-07-10T18:18:23.310Z,66.50
2017-07-10T18:20:51.630Z,66.40
2017-07-10T18:23:19.962Z,66.60
2017-07-10T18:25:48.270Z,66.90
2017-07-10T18:28:16.602Z,66.70
2017-07-10T18:30:44.918Z,66.70
2017-07-10T18:33:14.107Z,67.10
2017-07-10T18:35:42.426Z,66.90
2017-07-10T18:38:10.771Z,67.50
2017-07-10T18:40:39.096Z,67.70
2017-07-10T18:43:07.518Z,68.00
2017-07-10T18:45:35.879Z,68.70
2017-07-10T18:48:04.194Z,68.30
2017-07-10T18:50:32.531Z,68.50
2017-07-10T18:53:00.835Z,68.70
2017-07-10T18:55:29.168Z,69.20
2017-07-10T18:57:57.543Z,69.70
2017-07-10T19:00:25.916Z,69.40
2017-07-10T19:02:54.299Z,69.80
2017-07-10T19:05:22.639Z,69.90
2017-07-10T19:07:51.068Z,69.60
2017-07-10T19:10:19.538Z,69.90
2017-07-10T19:12:47.860Z,69.40
2017-07-10T19:15:16.192Z,69.10
2017-07-10T19:17:44.572Z,70.00
2017-07-10T19:20:12.892Z,69.80
2017-07-10T19:22:41.288Z,70.20
2017-07-10T19:25:09.633Z,70.40
2017-07-10T19:27:38.028Z,70.70
2017-07-10T19:30:06.305Z,70.50
2017-07-10T19:32:34.642Z,71.30
2017-07-10T19:35:02.970Z,71.60
2017-07-10T19:37:31.312Z,71.40
2017-07-10T19:39:59.633Z,71.50
2017-07-10T19:42:27.948Z,71.20
2017-07-10T19:44:56.278Z,71.00
2017-07-10T19:47:24.604Z,71.60
2017-07-10T19:49:52.947Z,71.10
2017-07-10T19:52:21.269Z,71.20
2017-07-10T19:54:49.603Z,71.10
2017-07-10T19:57:17.919Z,71.80
2017-07-10T19:59:46.258Z,72.00
2017-07-10T20:02:14.586Z,72.40
2017-07-10T20:04:42.939Z,72.60
2017-07-10T20:07:11.266Z,72.50
2017-07-10T20:09:39.578Z,72.70
2017-07-10T20:12:07.923Z,72.80
2017-07-10T20:14:36.239Z,73.00
2017-07-10T20:17:04.575Z,72.60
2017-07-10T20:19:32.893Z,72.70
2017-07-10T20:22:01.237Z,72.70
2017-07-10T20:24:29.558Z,73.10
2017-07-10T20:26:57.905Z,73.60
2017-07-10T20:29:26.243Z,73.20
2017-07-10T20:31:54.583Z,73.00
2017-07-10T20:34:22.894Z,73.10
2017-07-10T20:36:51.216Z,73.00
2017-07-10T20:39:19.553Z,72.70
2017-07-10T20:41:47.880Z,73.70
2017-07-10T20:44:16.222Z,73.60
2017-07-10T20:46:44.583Z,73.60
2017-07-10T20:49:12.924Z,73.40
2017-07-10T20:51:41.245Z,72.30
2017-07-10T20:54:09.588Z,72.60
2017-07-10T20:56:37.915Z,72.90
2017-07-10T20:59:06.267Z,73.30
2017-07-10T21:01:34.583Z,73.80
2017-07-10T21:04:02.902Z,74.10
2017-07-10T21:06:31.232Z,74.90
2017-07-10T21:08:59.552Z,74.90
2017-07-10T21:11:27.892Z,74.60
2017-07-10T21:13:56.303Z,75.20
2017-07-10T21:16:24.639Z,75.10
2017-07-10T21:18:52.961Z,74.80
2017-07-10T21:21:21.316Z,75.30
2017-07-10T21:23:49.637Z,75.00
2017-07-10T21:26:17.955Z,74.90
2017-07-10T21:28:46.375Z,75.70
2017-07-10T21:31:14.688Z,76.80
2017-07-10T21:33:43.023Z,77.70
2017-07-10T21:36:11.340Z,76.20
2017-07-10T21:38:39.678Z,76.00
2017-07-10T21:41:08.007Z,75.70
2017-07-10T21:43:36.356Z,75.80
2017-07-10T21:46:04.680Z,75.30
2017-07-10T21:48:33.003Z,75.90
2017-07-10T21:51:01.344Z,75.90
2017-07-10T21:53:29.657Z,75.40
2017-07-10T21:55:58.004Z,76.20
2017-07-10T21:58:26.434Z,77.00
2017-07-10T22:00:54.768Z,76.20
2017-07-10T22:03:23.083Z,76.70
2017-07-10T22:05:51.478Z,76.50
2017-07-10T22:08:19.794Z,76.80
2017-07-10T22:10:48.115Z,76.90
2017-07-10T22:13:16.460Z,76.50
2017-07-10T22:15:44.917Z,77.00
2017-07-10T22:18:13.263Z,77.30
2017-07-10T22:20:41.623Z,77.50
2017-07-10T22:23:09.963Z,78.20
2017-07-10T22:25:38.289Z,78.70
2017-07-10T22:28:06.626Z,78.80
2017-07-10T22:30:34.963Z,79.20
2017-07-10T22:33:03.325Z,78.30
2017-07-10T22:35:31.671Z,79.00
2017-07-10T22:38:00.008Z,79.30
2017-07-10T22:40:28.353Z,79.50
2017-07-10T22:42:56.683Z,79.70
2017-07-10T22:45:25.186Z,80.10
2017-07-10T22:47:53.511Z,78.80
2017-07-10T22:50:21.896Z,79.20
2017-07-10T22:52:50.216Z,78.50
2017-07-10T22:55:18.552Z,78.20
2017-07-10T22:57:46.886Z,78.30
2017-07-10T23:00:15.207Z,79.10
2017-07-10T23:02:43.553Z,79.00
2017-07-10T23:05:12.008Z,78.50
2017-07-10T23:07:40.351Z,78.50
2017-07-10T23:10:08.685Z,78.50
2017-07-10T23:12:37.022Z,79.40
2017-07-10T23:15:05.331Z,79.50
2017-07-10T23:17:33.688Z,79.60
2017-07-10T23:20:02.002Z,78.70
2017-07-10T23:22:30.318Z,78.80
2017-07-10T23:24:58.650Z,78.40
2017-07-10T23:27:26.962Z,78.70
2017-07-10T23:29:55.350Z,78.60
2017-07-10T23:32:23.672Z,78.00
2017-07-10T23:34:52.010Z,77.60
2017-07-10T23:37:20.339Z,77.30
2017-07-10T23:39:48.673Z,77.40
2017-07-10T23:42:16.984Z,77.60
2017-07-10T23:44:45.286Z,77.70
2017-07-10T23:47:13.623Z,78.60
2017-07-10T23:49:41.939Z,79.30
2017-07-10T23:52:10.275Z,78.20
2017-07-10T23:54:38.594Z,77.70
2017-07-10T23:57:06.933Z,77.20
2017-07-10T23:59:36.228Z,78.30
